createdAt,value
2022-11-08T00:01:11.369Z,28.35
2022-11-08T00:03:38.378Z,31.00
2022-11-08T00:06:23.927Z,36.60
2022-11-08T00:09:09.942Z,36.97
2022-11-08T00:11:55.773Z,34.88
2022-11-08T00:14:22.804Z,33.58
2022-11-08T00:16:49.851Z,32.05
2022-11-08T00:19:16.914Z,44.28
2022-11-08T00:21:43.917Z,42.22
2022-11-08T00:24:10.948Z,30.23
2022-11-08T00:26:37.961Z,27.85
2022-11-08T00:29:04.959Z,28.17
2022-11-08T00:31:31.984Z,39.20
2022-11-08T00:33:59.048Z,29.40
2022-11-08T00:36:26.078Z,28.55
2022-11-08T00:38:53.069Z,28.98
2022-11-08T00:41:20.266Z,31.50
2022-11-08T00:43:47.304Z,30.52
2022-11-08T00:46:14.334Z,28.65
2022-11-08T00:48:41.435Z,27.67
2022-11-08T00:51:08.730Z,29.27
2022-11-08T00:53:37.547Z,30.98
2022-11-08T00:56:05.341Z,26.10
2022-11-08T00:58:32.345Z,36.78
2022-11-08T01:00:59.477Z,33.15
2022-11-08T01:03:26.556Z,33.20
2022-11-08T01:05:54.074Z,27.85
2022-11-08T01:08:21.959Z,30.45
2022-11-08T01:10:49.864Z,30.77
2022-11-08T01:13:16.910Z,30.27
2022-11-08T01:15:45.309Z,25.73
2022-11-08T01:18:12.638Z,31.67
2022-11-08T01:20:40.199Z,34.80
2022-11-08T01:23:07.257Z,33.42
2022-11-08T01:25:37.565Z,32.88
2022-11-08T01:28:04.845Z,34.47
2022-11-08T01:30:32.047Z,31.40
2022-11-08T01:32:59.068Z,36.53
2022-11-08T01:35:26.084Z,28.70
2022-11-08T01:37:53.152Z,35.17
2022-11-08T01:40:20.161Z,38.78
2022-11-08T01:42:47.206Z,31.42
2022-11-08T01:45:14.218Z,28.05
2022-11-08T01:47:41.283Z,37.55
2022-11-08T01:50:12.076Z,35.88
2022-11-08T01:52:49.354Z,33.65
2022-11-08T01:55:17.559Z,34.67
2022-11-08T01:57:47.275Z,33.55
2022-11-08T02:00:14.526Z,29.53
2022-11-08T02:02:42.381Z,32.13
2022-11-08T02:05:36.294Z,29.75
2022-11-08T02:08:15.875Z,31.27
2022-11-08T02:10:47.561Z,33.67
2022-11-08T02:13:16.073Z,40.03
2022-11-08T02:15:43.343Z,37.42
2022-11-08T02:18:10.506Z,39.72
2022-11-08T02:20:37.535Z,31.50
2022-11-08T02:23:13.770Z,35.55
2022-11-08T02:25:40.810Z,25.30
2022-11-08T02:28:07.826Z,41.55
2022-11-08T02:30:35.169Z,31.38
2022-11-08T02:33:14.105Z,36.80
2022-11-08T02:35:41.131Z,35.30
2022-11-08T02:38:08.174Z,37.65
2022-11-08T02:40:51.226Z,38.22
2022-11-08T02:43:18.408Z,36.88
2022-11-08T02:45:45.571Z,42.47
2022-11-08T02:48:12.929Z,37.88
2022-11-08T02:50:39.953Z,42.20
2022-11-08T02:53:07.080Z,38.83
2022-11-08T02:55:34.277Z,36.58
2022-11-08T02:58:01.485Z,36.50
2022-11-08T03:00:28.496Z,39.75
2022-11-08T03:02:58.683Z,44.97
2022-11-08T03:05:26.023Z,42.88
2022-11-08T03:07:53.677Z,35.05
2022-11-08T03:10:20.820Z,37.05
2022-11-08T03:12:47.862Z,32.08
2022-11-08T03:15:15.174Z,34.95
2022-11-08T03:17:42.190Z,27.65
2022-11-08T03:20:09.439Z,31.08
2022-11-08T03:22:36.428Z,39.92
2022-11-08T03:25:03.443Z,35.00
2022-11-08T03:27:33.558Z,36.65
2022-11-08T03:30:00.866Z,33.13
2022-11-08T03:32:27.862Z,35.83
2022-11-08T03:34:54.886Z,35.38
2022-11-08T03:37:23.059Z,47.42
2022-11-08T03:39:50.102Z,34.30
2022-11-08T03:42:17.097Z,31.55
2022-11-08T03:44:44.104Z,38.58
2022-11-08T03:47:11.117Z,40.47
2022-11-08T03:49:38.174Z,32.38
2022-11-08T03:52:05.233Z,34.42
2022-11-08T03:54:32.222Z,34.80
2022-11-08T03:56:59.255Z,38.28
2022-11-08T03:59:26.291Z,37.22
2022-11-08T04:01:53.450Z,42.85
2022-11-08T04:04:20.591Z,42.95
2022-11-08T04:06:47.587Z,40.03
2022-11-08T04:09:18.996Z,37.22
2022-11-08T04:12:07.047Z,42.72
2022-11-08T04:14:52.563Z,49.53
2022-11-08T04:17:19.631Z,42.25
2022-11-08T04:20:05.241Z,49.38
2022-11-08T04:22:32.240Z,39.47
2022-11-08T04:24:59.291Z,36.60
2022-11-08T04:27:26.287Z,38.38
2022-11-08T04:29:53.294Z,34.63
2022-11-08T04:32:20.360Z,44.15
2022-11-08T04:34:47.407Z,43.67
2022-11-08T04:37:14.421Z,47.42
2022-11-08T04:39:41.484Z,47.25
2022-11-08T04:42:08.546Z,42.30
2022-11-08T04:44:35.569Z,53.03
2022-11-08T04:47:02.574Z,53.20
2022-11-08T04:49:29.606Z,50.30
2022-11-08T04:51:56.625Z,53.13
2022-11-08T04:54:23.626Z,50.05
2022-11-08T04:56:50.654Z,44.65
2022-11-08T04:59:17.686Z,49.53
2022-11-08T05:01:44.751Z,45.63
2022-11-08T05:04:11.910Z,47.33
2022-11-08T05:06:38.917Z,50.63
2022-11-08T05:09:05.973Z,48.40
2022-11-08T05:11:33.105Z,44.13
2022-11-08T05:14:00.104Z,50.92
2022-11-08T05:16:28.295Z,43.90
2022-11-08T05:18:55.423Z,41.28
2022-11-08T05:21:40.890Z,41.65
2022-11-08T05:24:08.779Z,38.47
2022-11-08T05:26:36.349Z,36.53
2022-11-08T05:29:03.501Z,46.67
2022-11-08T05:31:30.514Z,40.72
2022-11-08T05:33:57.676Z,38.83
2022-11-08T05:36:24.699Z,45.67
2022-11-08T05:38:51.744Z,74.55
2022-11-08T05:41:19.331Z,38.03
2022-11-08T05:43:46.711Z,35.30
2022-11-08T05:46:13.899Z,39.45
2022-11-08T05:48:42.247Z,30.80
2022-11-08T05:51:09.366Z,41.45
2022-11-08T05:53:36.424Z,39.80
2022-11-08T05:56:03.612Z,40.47
2022-11-08T05:58:30.830Z,36.78
2022-11-08T06:01:01.521Z,37.42
2022-11-08T06:03:29.235Z,35.40
2022-11-08T06:05:56.698Z,52.25
2022-11-08T06:08:23.738Z,42.90
2022-11-08T06:10:50.737Z,48.67
2022-11-08T06:13:18.884Z,38.90
2022-11-08T06:15:45.886Z,42.33
2022-11-08T06:18:12.912Z,43.20
2022-11-08T06:20:39.968Z,45.80
2022-11-08T06:23:07.047Z,56.15
2022-11-08T06:25:34.273Z,54.75
2022-11-08T06:28:01.354Z,52.85
2022-11-08T06:30:28.391Z,58.92
2022-11-08T06:32:55.392Z,47.13
2022-11-08T06:35:22.607Z,51.65
2022-11-08T06:37:49.684Z,54.15
2022-11-08T06:40:16.709Z,45.63
2022-11-08T06:42:43.746Z,37.67
2022-11-08T06:45:10.903Z,45.03
2022-11-08T06:47:37.910Z,46.38
2022-11-08T06:50:05.175Z,31.73
2022-11-08T06:52:32.206Z,34.97
2022-11-08T06:54:59.206Z,37.63
2022-11-08T06:57:26.243Z,41.03
2022-11-08T06:59:53.230Z,35.92
2022-11-08T07:02:20.287Z,30.42
2022-11-08T07:04:47.473Z,37.42
2022-11-08T07:07:14.497Z,31.30
2022-11-08T07:09:41.554Z,41.30
2022-11-08T07:12:09.798Z,47.50
2022-11-08T07:14:36.853Z,48.15
2022-11-08T07:17:04.327Z,49.10
2022-11-08T07:19:31.410Z,32.75
2022-11-08T07:21:58.421Z,31.88
2022-11-08T07:24:25.445Z,36.25
2022-11-08T07:26:52.480Z,38.92
2022-11-08T07:29:19.560Z,35.88
2022-11-08T07:31:47.131Z,41.70
2022-11-08T07:34:14.241Z,35.78
2022-11-08T07:36:41.691Z,34.63
2022-11-08T07:39:08.813Z,30.77
2022-11-08T07:41:35.886Z,35.75
2022-11-08T07:44:02.990Z,29.05
2022-11-08T07:46:30.012Z,31.95
2022-11-08T07:48:57.079Z,28.55
2022-11-08T07:51:24.166Z,23.65
2022-11-08T07:53:51.184Z,21.45
2022-11-08T07:56:18.486Z,20.20
2022-11-08T07:58:45.647Z,20.15
2022-11-08T08:01:12.887Z,19.27
2022-11-08T08:03:40.062Z,27.42
2022-11-08T08:06:07.153Z,21.10
2022-11-08T08:08:34.255Z,22.05
2022-11-08T08:11:01.364Z,16.90
2022-11-08T08:13:28.560Z,14.93
2022-11-08T08:15:58.448Z,17.23
2022-11-08T08:18:25.551Z,13.10
2022-11-08T08:20:52.633Z,17.27
2022-11-08T08:23:20.048Z,7.63
2022-11-08T08:25:47.340Z,11.93
2022-11-08T08:28:14.430Z,15.63
2022-11-08T08:30:41.643Z,13.00
2022-11-08T08:35:57.158Z,8.90
2022-11-08T08:38:24.166Z,4.35
2022-11-08T08:40:51.673Z,8.45
2022-11-08T08:43:19.146Z,5.97
2022-11-08T08:45:46.789Z,7.85
2022-11-08T08:48:13.851Z,7.68
2022-11-08T08:50:40.990Z,16.20
2022-11-08T08:53:08.118Z,11.45
2022-11-08T08:55:35.473Z,11.63
2022-11-08T08:58:02.668Z,10.45
2022-11-08T09:03:17.332Z,6.72
2022-11-08T09:05:46.554Z,9.23
2022-11-08T09:08:14.553Z,6.45
2022-11-08T09:10:41.833Z,9.00
2022-11-08T09:13:09.037Z,11.00
2022-11-08T09:15:36.145Z,11.32
2022-11-08T09:18:03.306Z,7.40
2022-11-08T09:20:30.479Z,7.20
2022-11-08T09:23:01.911Z,6.60
2022-11-08T09:25:29.026Z,7.93
2022-11-08T09:27:56.133Z,9.50
2022-11-08T09:30:23.277Z,6.70
2022-11-08T09:33:02.028Z,12.50
2022-11-08T09:35:29.904Z,7.65
2022-11-08T09:37:57.131Z,8.13
2022-11-08T09:40:48.977Z,7.05
2022-11-08T09:43:26.597Z,16.30
2022-11-08T09:45:56.094Z,11.43
2022-11-08T09:48:33.023Z,8.18
2022-11-08T09:51:00.264Z,8.38
2022-11-08T09:53:35.405Z,9.52
2022-11-08T09:56:03.636Z,7.57
2022-11-08T09:58:46.035Z,5.30
2022-11-08T10:01:13.361Z,7.18
2022-11-08T10:03:40.625Z,8.10
2022-11-08T10:06:26.047Z,7.40
2022-11-08T10:09:00.008Z,7.40
2022-11-08T10:11:27.660Z,5.35
2022-11-08T10:14:13.229Z,5.43
2022-11-08T10:16:44.970Z,5.00
2022-11-08T10:19:15.784Z,10.15
2022-11-08T10:21:48.682Z,5.05
2022-11-08T10:24:16.201Z,3.83
2022-11-08T10:26:45.694Z,8.75
2022-11-08T10:29:15.739Z,7.40
2022-11-08T10:31:42.775Z,3.78
2022-11-08T10:34:16.585Z,5.30
2022-11-08T10:36:48.315Z,4.70
2022-11-08T10:39:21.133Z,5.25
2022-11-08T10:41:49.505Z,4.18
2022-11-08T10:44:17.771Z,6.88
2022-11-08T10:46:45.519Z,5.18
2022-11-08T10:49:15.671Z,5.32
2022-11-08T10:51:43.862Z,8.18
2022-11-08T10:54:13.432Z,6.97
2022-11-08T10:56:54.116Z,4.82
2022-11-08T10:59:33.804Z,10.07
2022-11-08T11:02:01.027Z,7.57
2022-11-08T11:04:29.169Z,6.30
2022-11-08T11:06:56.326Z,5.93
2022-11-08T11:09:23.461Z,4.70
2022-11-08T11:11:56.821Z,5.47
2022-11-08T11:14:23.900Z,7.25
2022-11-08T11:17:07.499Z,4.50
2022-11-08T11:19:34.579Z,3.88
2022-11-08T11:22:01.580Z,5.70
2022-11-08T11:24:28.618Z,3.83
2022-11-08T11:26:58.771Z,4.00
2022-11-08T11:29:35.537Z,4.05
2022-11-08T11:32:20.926Z,5.35
2022-11-08T11:35:08.271Z,5.25
2022-11-08T11:37:36.999Z,5.60
2022-11-08T11:40:04.081Z,5.07
2022-11-08T11:42:47.112Z,3.85
2022-11-08T11:45:22.153Z,3.30
2022-11-08T11:47:53.378Z,3.70
2022-11-08T11:50:22.194Z,4.28
2022-11-08T11:52:49.266Z,4.57
2022-11-08T11:55:16.435Z,4.63
2022-11-08T11:57:47.957Z,10.25
2022-11-08T12:00:15.414Z,7.32
2022-11-08T12:03:01.601Z,6.35
2022-11-08T12:05:28.682Z,6.22
2022-11-08T12:08:02.933Z,5.80
2022-11-08T12:10:39.919Z,4.85
2022-11-08T12:13:18.543Z,7.85
2022-11-08T12:15:57.830Z,10.68
2022-11-08T12:18:44.468Z,8.45
2022-11-08T12:21:15.810Z,7.10
2022-11-08T12:23:55.096Z,5.65
2022-11-08T12:26:34.056Z,10.05
2022-11-08T12:29:01.168Z,7.15
2022-11-08T12:31:33.691Z,6.25
2022-11-08T12:34:18.917Z,7.30
2022-11-08T12:36:53.443Z,8.45
2022-11-08T12:39:24.122Z,15.75
2022-11-08T12:42:00.617Z,6.32
2022-11-08T12:44:36.977Z,7.07
2022-11-08T12:47:03.967Z,5.97
2022-11-08T12:49:37.308Z,9.02
2022-11-08T12:52:04.308Z,7.60
2022-11-08T12:54:36.364Z,6.57
2022-11-08T12:57:04.291Z,6.47
2022-11-08T12:59:31.310Z,7.82
2022-11-08T13:01:58.321Z,6.38
2022-11-08T13:04:46.037Z,10.45
2022-11-08T13:07:22.239Z,12.07
2022-11-08T13:10:12.372Z,7.53
2022-11-08T13:12:48.815Z,8.35
2022-11-08T13:15:16.918Z,7.10
2022-11-08T13:17:49.075Z,5.75
2022-11-08T13:20:42.434Z,6.78
2022-11-08T13:23:12.707Z,6.35
2022-11-08T13:25:39.890Z,5.53
2022-11-08T13:28:25.505Z,8.43
2022-11-08T13:31:00.399Z,9.20
2022-11-08T13:33:30.555Z,6.80
2022-11-08T13:36:01.191Z,6.90
2022-11-08T13:38:31.304Z,8.45
2022-11-08T13:41:04.360Z,6.05
2022-11-08T13:43:31.960Z,6.38
2022-11-08T13:46:17.858Z,9.35
2022-11-08T13:48:44.862Z,8.15
2022-11-08T13:51:27.926Z,5.75
2022-11-08T13:53:58.966Z,9.02
2022-11-08T13:56:27.316Z,7.22
2022-11-08T13:58:54.475Z,8.98
2022-11-08T14:01:21.583Z,4.18
2022-11-08T14:03:48.639Z,8.18
2022-11-08T14:06:24.636Z,10.20
2022-11-08T14:08:58.163Z,7.63
2022-11-08T14:11:28.637Z,7.90
2022-11-08T14:16:23.744Z,7.30
2022-11-08T14:18:51.074Z,6.03
2022-11-08T14:21:18.971Z,5.88
2022-11-08T14:23:47.135Z,8.52
2022-11-08T14:26:14.162Z,9.27
2022-11-08T14:28:41.902Z,9.93
2022-11-08T14:31:22.526Z,9.43
2022-11-08T14:33:49.618Z,6.78
2022-11-08T14:36:17.095Z,8.85
2022-11-08T14:39:07.385Z,10.60
2022-11-08T14:41:34.458Z,7.68
2022-11-08T14:44:02.089Z,12.00
2022-11-08T14:46:30.202Z,8.43
2022-11-08T14:48:57.275Z,6.53
2022-11-08T14:51:27.410Z,10.13
2022-11-08T14:53:54.875Z,9.90
2022-11-08T14:56:22.768Z,10.02
2022-11-08T14:58:51.016Z,9.25
2022-11-08T15:01:19.866Z,12.77
2022-11-08T15:03:57.031Z,7.85
2022-11-08T15:06:30.978Z,8.38
2022-11-08T15:08:58.087Z,10.88
2022-11-08T15:11:31.963Z,13.35
2022-11-08T15:14:00.069Z,6.57
2022-11-08T15:16:27.178Z,7.75
2022-11-08T15:18:54.819Z,20.45
2022-11-08T15:21:24.842Z,9.13
2022-11-08T15:23:55.189Z,6.25
2022-11-08T15:26:22.276Z,15.02
2022-11-08T15:29:08.039Z,7.60
2022-11-08T15:31:36.242Z,8.65
2022-11-08T15:34:03.294Z,9.88
2022-11-08T15:36:34.526Z,7.05
2022-11-08T15:39:01.536Z,7.57
2022-11-08T15:41:38.289Z,10.88
2022-11-08T15:44:22.381Z,9.82
2022-11-08T15:46:49.530Z,8.88
2022-11-08T15:49:19.737Z,7.78
2022-11-08T15:51:47.440Z,9.15
2022-11-08T15:54:14.531Z,7.70
2022-11-08T15:56:41.698Z,6.22
2022-11-08T15:59:44.485Z,10.85
2022-11-08T16:02:13.213Z,9.07
2022-11-08T16:04:40.226Z,10.73
2022-11-08T16:07:07.291Z,6.47
2022-11-08T16:09:34.365Z,7.00
2022-11-08T16:12:02.619Z,8.35
2022-11-08T16:14:29.615Z,8.75
2022-11-08T16:16:56.666Z,7.28
2022-11-08T16:19:24.773Z,10.57
2022-11-08T16:21:52.109Z,10.98
2022-11-08T16:24:19.141Z,8.43
2022-11-08T16:26:46.192Z,9.20
2022-11-08T16:29:23.601Z,10.45
2022-11-08T16:31:51.009Z,7.90
2022-11-08T16:34:18.081Z,8.30
2022-11-08T16:36:45.393Z,10.93
2022-11-08T16:39:14.762Z,10.75
2022-11-08T16:41:42.972Z,11.43
2022-11-08T16:44:10.646Z,11.07
2022-11-08T16:46:37.761Z,11.18
2022-11-08T16:49:05.142Z,10.65
2022-11-08T16:51:32.149Z,7.88
2022-11-08T16:53:59.150Z,9.35
2022-11-08T16:56:26.169Z,6.85
2022-11-08T16:58:53.192Z,7.30
2022-11-08T17:01:21.134Z,7.72
2022-11-08T17:03:48.211Z,7.95
2022-11-08T17:06:35.741Z,12.48
2022-11-08T17:09:02.806Z,11.65
2022-11-08T17:11:29.859Z,8.30
2022-11-08T17:14:17.303Z,10.68
2022-11-08T17:16:44.375Z,8.40
2022-11-08T17:19:11.414Z,11.98
2022-11-08T17:21:44.789Z,13.70
2022-11-08T17:24:17.010Z,12.70
2022-11-08T17:26:48.160Z,9.85
2022-11-08T17:29:15.470Z,11.05
2022-11-08T17:31:42.626Z,14.63
2022-11-08T17:34:10.165Z,19.27
2022-11-08T17:36:37.414Z,16.65
2022-11-08T17:39:06.390Z,13.95
2022-11-08T17:41:33.688Z,14.23
2022-11-08T17:44:01.116Z,10.85
2022-11-08T17:46:28.331Z,11.82
2022-11-08T17:48:55.702Z,13.68
2022-11-08T17:51:23.142Z,10.63
2022-11-08T17:53:50.342Z,7.93
2022-11-08T17:56:18.145Z,9.80
2022-11-08T17:58:45.242Z,12.35
2022-11-08T18:01:12.437Z,10.95
2022-11-08T18:03:39.697Z,17.92
2022-11-08T18:06:07.598Z,10.52
2022-11-08T18:08:35.334Z,11.45
2022-11-08T18:11:02.496Z,9.77
2022-11-08T18:13:29.666Z,13.45
2022-11-08T18:15:56.774Z,10.50
2022-11-08T18:18:23.928Z,9.85
2022-11-08T18:20:54.798Z,18.17
2022-11-08T18:23:22.284Z,13.25
2022-11-08T18:25:49.843Z,13.45
2022-11-08T18:28:17.089Z,10.13
2022-11-08T18:30:47.842Z,12.20
2022-11-08T18:33:15.761Z,9.23
2022-11-08T18:35:43.446Z,8.57
2022-11-08T18:38:10.859Z,12.77
2022-11-08T18:40:39.020Z,8.85
2022-11-08T18:43:06.544Z,9.32
2022-11-08T18:45:33.600Z,7.70
2022-11-08T18:48:00.770Z,7.47
2022-11-08T18:50:27.868Z,11.88
2022-11-08T18:52:55.932Z,10.25
2022-11-08T18:55:25.570Z,6.68
2022-11-08T18:57:53.395Z,13.00
2022-11-08T19:00:20.733Z,7.38
2022-11-08T19:02:47.787Z,7.45
2022-11-08T19:05:14.786Z,5.80
2022-11-08T19:07:41.884Z,7.88
2022-11-08T19:10:09.275Z,5.05
2022-11-08T19:12:36.287Z,6.63
2022-11-08T19:15:03.430Z,6.43
2022-11-08T19:17:31.784Z,5.32
2022-11-08T19:19:58.803Z,4.60
2022-11-08T19:22:26.775Z,9.98
2022-11-08T19:24:53.789Z,7.63
2022-11-08T19:27:20.852Z,8.13
2022-11-08T19:29:47.893Z,4.85
2022-11-08T19:32:14.947Z,6.50
2022-11-08T19:34:42.041Z,4.72
2022-11-08T19:37:09.079Z,9.73
2022-11-08T19:39:36.132Z,7.28
2022-11-08T19:42:03.130Z,6.88
2022-11-08T19:44:31.725Z,9.45
2022-11-08T19:46:58.768Z,7.22
2022-11-08T19:49:28.007Z,7.63
2022-11-08T19:51:55.106Z,6.97
2022-11-08T19:54:22.174Z,7.32
2022-11-08T19:57:06.027Z,5.07
2022-11-08T19:59:33.460Z,5.93
2022-11-08T20:02:00.657Z,7.95
2022-11-08T20:04:27.795Z,9.95
2022-11-08T20:06:54.890Z,6.47
2022-11-08T20:09:27.398Z,8.65
2022-11-08T20:11:57.248Z,6.60
2022-11-08T20:14:24.698Z,6.50
2022-11-08T20:16:53.722Z,5.60
2022-11-08T20:19:20.953Z,9.15
2022-11-08T20:21:48.158Z,9.75
2022-11-08T20:24:15.288Z,10.43
2022-11-08T20:26:42.414Z,5.28
2022-11-08T20:29:09.459Z,6.53
2022-11-08T20:31:36.709Z,5.28
2022-11-08T20:34:05.914Z,7.15
2022-11-08T20:36:35.292Z,8.77
2022-11-08T20:39:06.845Z,5.43
2022-11-08T20:41:36.821Z,7.97
2022-11-08T20:44:03.956Z,8.10
2022-11-08T20:46:32.332Z,7.60
2022-11-08T20:49:01.095Z,6.80
2022-11-08T20:51:28.646Z,6.78
2022-11-08T20:53:56.030Z,5.80
2022-11-08T20:56:23.305Z,6.72
2022-11-08T20:58:50.668Z,5.80
2022-11-08T21:01:18.698Z,7.82
2022-11-08T21:03:45.927Z,12.35
2022-11-08T21:06:13.865Z,5.30
2022-11-08T21:11:30.026Z,6.57
2022-11-08T21:13:57.098Z,7.82
2022-11-08T21:16:42.269Z,7.72
2022-11-08T21:19:11.210Z,10.43
2022-11-08T21:21:38.419Z,7.57
2022-11-08T21:24:05.565Z,5.47
2022-11-08T21:26:36.785Z,12.65
2022-11-08T21:29:04.502Z,5.85
2022-11-08T21:31:31.505Z,7.07
2022-11-08T21:33:58.611Z,5.00
2022-11-08T21:36:26.912Z,12.20
2022-11-08T21:38:54.209Z,5.95
2022-11-08T21:41:21.324Z,7.25
2022-11-08T21:43:48.427Z,9.32
2022-11-08T21:46:22.376Z,7.28
2022-11-08T21:48:53.359Z,5.05
2022-11-08T21:51:20.424Z,5.03
2022-11-08T21:53:54.023Z,6.97
2022-11-08T21:56:22.555Z,8.70
2022-11-08T21:58:49.581Z,6.28
2022-11-08T22:01:16.773Z,8.93
2022-11-08T22:03:44.049Z,10.50
2022-11-08T22:06:11.087Z,6.35
2022-11-08T22:08:38.102Z,5.45
2022-11-08T22:11:05.213Z,6.32
2022-11-08T22:13:32.239Z,12.00
2022-11-08T22:15:59.269Z,8.68
2022-11-08T22:18:50.208Z,5.05
2022-11-08T22:21:31.906Z,11.98
2022-11-08T22:23:58.924Z,6.55
2022-11-08T22:26:25.957Z,9.70
2022-11-08T22:28:53.028Z,6.85
2022-11-08T22:31:20.042Z,7.50
2022-11-08T22:33:47.079Z,9.95
2022-11-08T22:36:14.513Z,7.75
2022-11-08T22:38:41.595Z,5.82
2022-11-08T22:41:08.722Z,6.30
2022-11-08T22:43:35.844Z,8.90
2022-11-08T22:46:02.968Z,10.65
2022-11-08T22:48:30.007Z,7.93
2022-11-08T22:50:57.498Z,8.90
2022-11-08T22:53:24.532Z,7.10
2022-11-08T22:55:51.634Z,7.97
2022-11-08T22:58:18.675Z,8.32
2022-11-08T23:00:45.811Z,6.97
2022-11-08T23:03:13.013Z,8.73
2022-11-08T23:05:40.011Z,7.88
2022-11-08T23:08:07.113Z,8.95
2022-11-08T23:10:54.113Z,9.75
2022-11-08T23:13:39.696Z,8.10
2022-11-08T23:16:12.699Z,7.40
2022-11-08T23:18:59.681Z,9.38
2022-11-08T23:21:45.314Z,6.05
2022-11-08T23:24:21.490Z,9.07
2022-11-08T23:27:07.045Z,7.13
2022-11-08T23:29:52.768Z,10.40
2022-11-08T23:32:19.784Z,10.30
2022-11-08T23:34:46.786Z,8.05
2022-11-08T23:37:13.973Z,10.23
2022-11-08T23:39:59.785Z,9.05
2022-11-08T23:42:45.569Z,13.70
2022-11-08T23:45:12.578Z,8.52
2022-11-08T23:47:39.584Z,8.43
2022-11-08T23:50:06.872Z,7.97
2022-11-08T23:52:34.136Z,7.38
2022-11-08T23:55:01.239Z,8.52
2022-11-08T23:57:28.244Z,9.60
2022-11-08T23:59:55.247Z,9.00
